createdAt,value
2022-12-14T00:00:44.471Z,70.33
2022-12-14T00:03:11.521Z,69.35
2022-12-14T00:05:38.318Z,70.41
2022-12-14T00:08:05.300Z,70.34
2022-12-14T00:10:32.627Z,69.33
2022-12-14T00:12:59.318Z,68.50
2022-12-14T00:15:25.806Z,67.86
2022-12-14T00:17:52.305Z,68.60
2022-12-14T00:20:18.989Z,68.42
2022-12-14T00:22:45.497Z,68.25
2022-12-14T00:25:12.110Z,68.78
2022-12-14T00:27:45.653Z,68.82
2022-12-14T00:30:13.341Z,68.93
2022-12-14T00:32:40.984Z,68.59
2022-12-14T00:35:11.638Z,67.96
2022-12-14T00:37:38.634Z,67.51
2022-12-14T00:40:06.355Z,67.77
2022-12-14T00:42:32.813Z,68.12
2022-12-14T00:44:59.405Z,68.72
2022-12-14T00:47:26.049Z,67.40
2022-12-14T00:49:53.153Z,67.67
2022-12-14T00:52:19.949Z,67.88
2022-12-14T00:54:46.589Z,69.17
2022-12-14T00:57:13.078Z,68.16
2022-12-14T00:59:39.514Z,67.68
2022-12-14T01:02:07.076Z,68.08
2022-12-14T01:04:33.649Z,68.00
2022-12-14T01:07:00.146Z,68.63
2022-12-14T01:09:26.990Z,68.38
2022-12-14T01:11:53.517Z,68.48
2022-12-14T01:14:20.570Z,67.67
2022-12-14T01:16:47.222Z,68.04
2022-12-14T01:19:14.255Z,68.15
2022-12-14T01:21:40.736Z,68.16
2022-12-14T01:24:08.761Z,68.49
2022-12-14T01:26:38.880Z,68.25
2022-12-14T01:29:06.473Z,68.98
2022-12-14T01:31:34.622Z,69.35
2022-12-14T01:34:01.444Z,68.21
2022-12-14T01:36:29.129Z,68.35
2022-12-14T01:38:56.800Z,68.13
2022-12-14T01:41:37.537Z,68.32
2022-12-14T01:44:10.173Z,69.07
2022-12-14T01:46:36.660Z,68.54
2022-12-14T01:49:12.779Z,67.94
2022-12-14T01:51:40.199Z,68.36
2022-12-14T01:54:09.170Z,69.98
2022-12-14T01:56:38.989Z,70.86
2022-12-14T01:59:08.493Z,70.33
2022-12-14T02:01:35.274Z,69.91
2022-12-14T02:04:02.090Z,69.61
2022-12-14T02:06:30.572Z,70.82
2022-12-14T02:08:57.260Z,70.15
2022-12-14T02:11:31.400Z,70.31
2022-12-14T02:13:57.833Z,70.83
2022-12-14T02:16:24.423Z,72.71
2022-12-14T02:18:50.885Z,72.92
2022-12-14T02:21:21.305Z,73.49
2022-12-14T02:23:59.913Z,73.75
2022-12-14T02:26:52.353Z,74.21
2022-12-14T02:29:24.791Z,74.66
2022-12-14T02:31:54.248Z,74.90
2022-12-14T02:34:46.415Z,75.15
2022-12-14T02:37:15.950Z,75.41
2022-12-14T02:39:42.484Z,76.96
2022-12-14T02:42:13.501Z,77.02
2022-12-14T02:44:45.256Z,77.12
2022-12-14T02:47:26.500Z,77.64
2022-12-14T02:50:11.092Z,76.75
2022-12-14T02:52:53.591Z,75.17
2022-12-14T02:55:29.374Z,74.34
2022-12-14T02:57:55.786Z,73.54
2022-12-14T03:00:23.585Z,75.17
2022-12-14T03:02:50.388Z,75.79
2022-12-14T03:05:16.945Z,75.83
2022-12-14T03:07:48.725Z,75.02
2022-12-14T03:10:23.452Z,74.25
2022-12-14T03:12:54.179Z,72.87
2022-12-14T03:15:22.632Z,72.02
2022-12-14T03:17:51.485Z,70.87
2022-12-14T03:20:21.508Z,70.86
2022-12-14T03:22:57.132Z,72.06
2022-12-14T03:25:29.591Z,71.59
2022-12-14T03:28:04.304Z,70.46
2022-12-14T03:30:58.836Z,71.45
2022-12-14T03:33:21.724Z,71.68
2022-12-14T03:35:57.569Z,70.78
2022-12-14T03:38:24.194Z,70.34
2022-12-14T03:41:03.934Z,69.68
2022-12-14T03:43:50.640Z,69.62
2022-12-14T03:46:26.477Z,70.32
2022-12-14T03:48:56.285Z,70.78
2022-12-14T03:51:35.411Z,70.80
2022-12-14T03:54:10.465Z,70.47
2022-12-14T03:56:52.601Z,70.40
2022-12-14T03:59:27.333Z,69.95
2022-12-14T04:01:57.040Z,70.88
2022-12-14T04:04:35.880Z,70.56
2022-12-14T04:07:05.436Z,70.38
2022-12-14T04:09:41.584Z,71.75
2022-12-14T04:12:30.233Z,72.14
2022-12-14T04:15:19.982Z,73.39
2022-12-14T04:18:06.241Z,73.50
2022-12-14T04:20:42.435Z,73.34
2022-12-14T04:23:14.826Z,73.29
2022-12-14T04:26:05.030Z,74.18
2022-12-14T04:28:56.798Z,74.41
2022-12-14T04:31:25.210Z,73.98
2022-12-14T04:33:54.836Z,74.50
2022-12-14T04:36:40.502Z,74.01
2022-12-14T04:39:08.780Z,74.66
2022-12-14T04:41:37.419Z,75.32
2022-12-14T04:44:06.526Z,75.08
2022-12-14T04:46:40.303Z,75.03
2022-12-14T04:49:13.272Z,75.51
2022-12-14T04:51:49.672Z,75.07
2022-12-14T04:54:16.081Z,75.95
2022-12-14T04:57:04.502Z,75.96
2022-12-14T04:59:32.146Z,74.87
2022-12-14T05:02:01.765Z,74.43
2022-12-14T05:04:28.346Z,73.70
2022-12-14T05:06:57.637Z,74.02
2022-12-14T05:09:41.177Z,73.74
2022-12-14T05:12:12.477Z,74.14
2022-12-14T05:14:50.891Z,73.48
2022-12-14T05:17:18.063Z,75.16
2022-12-14T05:19:48.758Z,76.63
2022-12-14T05:22:16.176Z,76.96
2022-12-14T05:24:42.640Z,77.38
2022-12-14T05:27:09.060Z,76.38
2022-12-14T05:29:35.523Z,75.86
2022-12-14T05:32:02.341Z,75.50
2022-12-14T05:34:28.821Z,76.16
2022-12-14T05:36:55.266Z,76.40
2022-12-14T05:39:21.686Z,75.92
2022-12-14T05:41:48.184Z,76.83
2022-12-14T05:44:14.873Z,76.67
2022-12-14T05:46:41.423Z,76.59
2022-12-14T05:49:07.957Z,76.62
2022-12-14T05:51:34.505Z,76.16
2022-12-14T05:54:01.016Z,75.74
2022-12-14T05:56:27.489Z,75.89
2022-12-14T05:58:54.411Z,76.51
2022-12-14T06:01:20.961Z,76.35
2022-12-14T06:03:47.593Z,73.76
2022-12-14T06:06:14.551Z,74.12
2022-12-14T06:08:42.557Z,75.96
2022-12-14T06:11:11.063Z,77.34
2022-12-14T06:13:38.197Z,77.01
2022-12-14T06:16:08.858Z,77.08
2022-12-14T06:18:35.449Z,77.71
2022-12-14T06:21:02.145Z,77.94
2022-12-14T06:23:28.952Z,78.05
2022-12-14T06:25:56.345Z,78.42
2022-12-14T06:28:23.353Z,78.61
2022-12-14T06:30:50.085Z,77.90
2022-12-14T06:33:16.534Z,78.91
2022-12-14T06:35:46.962Z,78.46
2022-12-14T06:38:14.143Z,77.78
2022-12-14T06:40:41.095Z,78.41
2022-12-14T06:43:07.606Z,78.30
2022-12-14T06:45:34.100Z,77.89
2022-12-14T06:48:00.557Z,77.63
2022-12-14T06:50:27.711Z,75.99
2022-12-14T06:52:57.135Z,74.97
2022-12-14T06:55:24.707Z,76.43
2022-12-14T06:57:51.839Z,75.85
2022-12-14T07:00:18.887Z,76.44
2022-12-14T07:02:45.776Z,76.40
2022-12-14T07:05:12.744Z,76.27
2022-12-14T07:07:39.237Z,76.80
2022-12-14T07:10:06.329Z,75.55
2022-12-14T07:12:32.785Z,74.01
2022-12-14T07:14:59.211Z,74.66
2022-12-14T07:17:25.650Z,75.49
2022-12-14T07:19:53.229Z,76.29
2022-12-14T07:22:19.913Z,75.52
2022-12-14T07:24:46.364Z,74.38
2022-12-14T07:27:12.836Z,75.24
2022-12-14T07:29:39.326Z,75.17
2022-12-14T07:32:05.748Z,75.54
2022-12-14T07:34:32.255Z,75.25
2022-12-14T07:36:58.694Z,74.58
2022-12-14T07:39:25.212Z,74.02
2022-12-14T07:41:52.135Z,74.25
2022-12-14T07:44:21.534Z,72.92
2022-12-14T07:46:48.058Z,73.24
2022-12-14T07:49:14.485Z,74.57
2022-12-14T07:51:45.730Z,74.23
2022-12-14T07:54:12.952Z,73.66
2022-12-14T07:56:40.436Z,74.81
2022-12-14T07:59:08.396Z,74.46
2022-12-14T08:01:36.242Z,74.29
2022-12-14T08:04:07.923Z,73.08
2022-12-14T08:06:34.534Z,73.21
2022-12-14T08:09:01.453Z,72.61
2022-12-14T08:11:28.062Z,72.60
2022-12-14T08:13:58.507Z,73.15
2022-12-14T08:16:25.288Z,73.89
2022-12-14T08:18:55.777Z,71.69
2022-12-14T08:21:23.079Z,72.85
2022-12-14T08:23:50.060Z,72.91
2022-12-14T08:26:16.806Z,72.55
2022-12-14T08:28:43.336Z,69.29
2022-12-14T08:31:11.798Z,70.96
2022-12-14T08:33:39.077Z,71.25
2022-12-14T08:36:09.634Z,71.08
2022-12-14T08:38:36.460Z,70.14
2022-12-14T08:41:07.065Z,69.65
2022-12-14T08:43:33.913Z,70.29
2022-12-14T08:46:00.537Z,70.62
2022-12-14T08:48:27.213Z,70.82
2022-12-14T08:50:53.846Z,71.84
2022-12-14T08:53:21.069Z,71.92
2022-12-14T08:55:47.558Z,71.24
2022-12-14T08:58:14.027Z,71.01
2022-12-14T09:00:40.638Z,71.33
2022-12-14T09:03:07.304Z,69.89
2022-12-14T09:05:36.612Z,71.10
2022-12-14T09:08:03.081Z,69.50
2022-12-14T09:10:29.521Z,69.52
2022-12-14T09:12:56.278Z,69.16
2022-12-14T09:15:22.734Z,70.12
2022-12-14T09:17:49.773Z,70.83
2022-12-14T09:20:16.495Z,68.60
2022-12-14T09:22:42.982Z,69.50
2022-12-14T09:25:09.573Z,72.34
2022-12-14T09:27:36.364Z,71.69
2022-12-14T09:30:03.237Z,70.18
2022-12-14T09:32:29.742Z,69.04
2022-12-14T09:34:56.228Z,69.83
2022-12-14T09:37:22.742Z,67.28
2022-12-14T09:39:49.194Z,66.77
2022-12-14T09:42:15.600Z,67.51
2022-12-14T09:44:47.880Z,67.20
2022-12-14T09:47:27.760Z,65.77
2022-12-14T09:49:58.370Z,63.98
2022-12-14T09:52:33.682Z,62.60
2022-12-14T09:55:01.661Z,61.77
2022-12-14T09:57:37.703Z,64.32
2022-12-14T10:00:05.489Z,63.75
2022-12-14T10:02:43.061Z,63.03
2022-12-14T10:05:11.065Z,61.54
2022-12-14T10:07:44.333Z,61.51
2022-12-14T10:10:32.904Z,61.45
2022-12-14T10:13:04.305Z,64.22
2022-12-14T10:15:42.974Z,64.72
2022-12-14T10:21:20.469Z,59.97
2022-12-14T10:23:50.082Z,63.77
2022-12-14T10:26:19.092Z,64.67
2022-12-14T10:28:45.489Z,64.67
2022-12-14T10:31:14.189Z,62.30
2022-12-14T10:33:44.822Z,63.23
2022-12-14T10:36:28.700Z,63.99
2022-12-14T10:38:59.536Z,61.78
2022-12-14T10:41:25.966Z,60.90
2022-12-14T10:43:52.374Z,61.57
2022-12-14T10:46:37.746Z,62.62
2022-12-14T10:49:16.453Z,61.63
2022-12-14T10:51:54.921Z,59.76
2022-12-14T10:54:21.340Z,61.24
2022-12-14T10:56:50.077Z,61.50
2022-12-14T10:59:23.625Z,58.84
2022-12-14T11:01:53.731Z,59.32
2022-12-14T11:04:23.373Z,60.32
2022-12-14T11:06:49.808Z,56.56
2022-12-14T11:09:20.796Z,57.20
2022-12-14T11:11:47.341Z,55.07
2022-12-14T11:14:17.586Z,57.35
2022-12-14T11:16:44.148Z,55.87
2022-12-14T11:19:28.963Z,56.05
2022-12-14T11:22:21.733Z,55.85
2022-12-14T11:24:48.916Z,55.05
2022-12-14T11:27:18.333Z,56.21
2022-12-14T11:29:47.157Z,55.82
2022-12-14T11:32:22.797Z,55.90
2022-12-14T11:34:57.330Z,55.57
2022-12-14T11:37:26.235Z,55.35
2022-12-14T11:39:54.300Z,54.78
2022-12-14T11:42:21.587Z,56.61
2022-12-14T11:44:48.860Z,56.34
2022-12-14T11:47:16.716Z,54.34
2022-12-14T11:49:47.860Z,52.89
2022-12-14T11:52:18.195Z,52.40
2022-12-14T11:54:50.139Z,51.49
2022-12-14T11:57:16.882Z,51.92
2022-12-14T11:59:52.343Z,49.43
2022-12-14T12:02:22.072Z,51.04
2022-12-14T12:04:57.190Z,52.27
2022-12-14T12:07:26.075Z,51.71
2022-12-14T12:09:52.926Z,51.51
2022-12-14T12:12:20.435Z,50.84
2022-12-14T12:14:50.445Z,52.72
2022-12-14T12:17:17.491Z,54.07
2022-12-14T12:19:45.041Z,52.79
2022-12-14T12:22:11.942Z,54.25
2022-12-14T12:25:08.389Z,54.49
2022-12-14T12:27:29.428Z,55.72
2022-12-14T12:30:02.265Z,56.80
2022-12-14T12:32:37.355Z,55.97
2022-12-14T12:35:11.389Z,56.33
2022-12-14T12:37:44.878Z,57.22
2022-12-14T12:40:19.693Z,57.95
2022-12-14T12:42:49.993Z,57.86
2022-12-14T12:45:19.271Z,58.37
2022-12-14T12:48:08.728Z,56.69
2022-12-14T12:50:36.751Z,57.81
2022-12-14T12:53:06.205Z,58.12
2022-12-14T12:55:40.579Z,58.27
2022-12-14T12:58:09.994Z,57.93
2022-12-14T13:00:38.181Z,58.40
2022-12-14T13:03:10.795Z,57.92
2022-12-14T13:05:48.206Z,58.13
2022-12-14T13:08:23.940Z,58.92
2022-12-14T13:13:41.562Z,60.54
2022-12-14T13:16:08.136Z,61.82
2022-12-14T13:18:59.642Z,60.23
2022-12-14T13:21:36.073Z,60.71
2022-12-14T13:24:03.475Z,59.95
2022-12-14T13:27:01.325Z,60.43
2022-12-14T13:29:30.814Z,60.50
2022-12-14T13:32:12.528Z,60.89
2022-12-14T13:34:38.949Z,62.66
2022-12-14T13:37:15.334Z,62.43
2022-12-14T13:39:41.729Z,62.41
2022-12-14T13:42:16.277Z,61.53
2022-12-14T13:44:55.939Z,62.97
2022-12-14T13:47:33.705Z,64.07
2022-12-14T13:50:35.012Z,65.02
2022-12-14T13:52:54.179Z,64.59
2022-12-14T13:55:30.259Z,63.81
2022-12-14T13:58:14.276Z,64.38
2022-12-14T14:00:49.548Z,64.88
2022-12-14T14:03:34.698Z,64.67
2022-12-14T14:06:08.728Z,63.68
2022-12-14T14:08:41.650Z,63.79
2022-12-14T14:11:39.552Z,63.91
2022-12-14T14:14:11.936Z,64.71
2022-12-14T14:16:47.139Z,66.50
2022-12-14T14:19:36.433Z,65.13
2022-12-14T14:22:25.574Z,65.82
2022-12-14T14:24:59.235Z,67.29
2022-12-14T14:27:35.288Z,67.07
2022-12-14T14:30:03.125Z,67.58
2022-12-14T14:32:37.772Z,67.65
2022-12-14T14:35:09.187Z,68.95
2022-12-14T14:37:36.571Z,68.14
2022-12-14T14:40:18.700Z,68.40
2022-12-14T14:42:55.643Z,68.19
2022-12-14T14:45:35.522Z,68.88
2022-12-14T14:48:08.169Z,69.64
2022-12-14T14:50:39.558Z,69.66
2022-12-14T14:53:18.426Z,70.74
2022-12-14T14:55:54.277Z,70.41
2022-12-14T14:58:23.973Z,71.76
2022-12-14T15:00:52.650Z,71.77
2022-12-14T15:03:34.850Z,71.74
2022-12-14T15:06:01.448Z,70.85
2022-12-14T15:08:31.261Z,72.00
2022-12-14T15:10:58.606Z,72.43
2022-12-14T15:13:27.293Z,72.02
2022-12-14T15:15:56.482Z,72.10
2022-12-14T15:18:24.511Z,71.49
2022-12-14T15:21:07.814Z,72.08
2022-12-14T15:23:39.426Z,72.06
2022-12-14T15:26:16.214Z,71.18
2022-12-14T15:28:46.100Z,71.16
2022-12-14T15:31:13.494Z,71.66
2022-12-14T15:33:42.032Z,72.10
2022-12-14T15:36:12.364Z,71.33
2022-12-14T15:38:38.865Z,71.10
2022-12-14T15:41:12.720Z,71.51
2022-12-14T15:43:42.932Z,72.36
2022-12-14T15:46:20.089Z,72.23
2022-12-14T15:48:46.643Z,73.12
2022-12-14T15:51:15.281Z,73.58
2022-12-14T15:53:50.438Z,74.66
2022-12-14T15:56:21.825Z,72.37
2022-12-14T15:58:48.914Z,73.24
2022-12-14T16:01:32.886Z,73.56
2022-12-14T16:04:01.588Z,74.38
2022-12-14T16:06:29.536Z,75.07
2022-12-14T16:09:02.013Z,76.26
2022-12-14T16:11:33.782Z,76.81
2022-12-14T16:14:03.214Z,76.95
2022-12-14T16:16:29.795Z,77.15
2022-12-14T16:19:13.852Z,77.41
2022-12-14T16:21:46.419Z,77.40
2022-12-14T16:24:23.850Z,76.18
2022-12-14T16:26:58.007Z,77.81
2022-12-14T16:29:29.471Z,78.49
2022-12-14T16:32:00.231Z,79.60
2022-12-14T16:34:27.515Z,80.20
2022-12-14T16:37:23.229Z,79.56
2022-12-14T16:39:47.235Z,80.08
2022-12-14T16:42:19.237Z,79.78
2022-12-14T16:44:46.035Z,80.04
2022-12-14T16:47:12.455Z,80.04
2022-12-14T16:49:42.480Z,80.42
2022-12-14T16:52:16.632Z,79.80
2022-12-14T16:54:43.569Z,78.63
2022-12-14T16:57:13.116Z,79.63
2022-12-14T16:59:41.161Z,79.84
2022-12-14T17:02:26.394Z,79.38
2022-12-14T17:04:53.141Z,79.46
2022-12-14T17:07:22.658Z,79.39
2022-12-14T17:09:49.313Z,79.48
2022-12-14T17:12:16.366Z,80.11
2022-12-14T17:14:49.510Z,80.19
2022-12-14T17:17:19.878Z,79.95
2022-12-14T17:19:46.361Z,79.87
2022-12-14T17:22:16.065Z,79.97
2022-12-14T17:24:42.538Z,81.02
2022-12-14T17:27:11.594Z,80.58
2022-12-14T17:29:38.036Z,79.50
2022-12-14T17:32:04.500Z,79.35
2022-12-14T17:34:31.081Z,79.78
2022-12-14T17:36:57.666Z,79.58
2022-12-14T17:39:24.822Z,79.38
2022-12-14T17:41:51.366Z,79.56
2022-12-14T17:44:19.661Z,80.52
2022-12-14T17:46:48.672Z,81.29
2022-12-14T17:49:15.951Z,80.83
2022-12-14T17:51:45.138Z,81.37
2022-12-14T17:54:16.411Z,80.91
2022-12-14T17:56:43.828Z,80.80
2022-12-14T17:59:10.281Z,80.79
2022-12-14T18:01:37.099Z,81.26
2022-12-14T18:04:03.864Z,81.97
2022-12-14T18:06:30.429Z,81.24
2022-12-14T18:08:56.859Z,81.22
2022-12-14T18:11:24.583Z,80.68
2022-12-14T18:13:51.198Z,82.44
2022-12-14T18:16:19.251Z,82.49
2022-12-14T18:18:46.158Z,82.03
2022-12-14T18:21:18.205Z,81.69
2022-12-14T18:23:44.944Z,81.54
2022-12-14T18:26:12.952Z,81.64
2022-12-14T18:28:42.588Z,81.71
2022-12-14T18:31:15.379Z,81.58
2022-12-14T18:33:43.602Z,81.05
2022-12-14T18:36:11.588Z,81.26
2022-12-14T18:38:38.083Z,81.65
2022-12-14T18:41:05.046Z,81.03
2022-12-14T18:43:32.435Z,81.61
2022-12-14T18:46:00.183Z,82.01
2022-12-14T18:48:26.754Z,82.22
2022-12-14T18:50:53.862Z,83.75
2022-12-14T18:53:22.245Z,83.52
2022-12-14T18:55:49.089Z,83.07
2022-12-14T18:58:21.642Z,83.67
2022-12-14T19:00:51.253Z,83.41
2022-12-14T19:03:18.098Z,83.57
2022-12-14T19:05:44.796Z,83.90
2022-12-14T19:08:11.553Z,83.61
2022-12-14T19:10:39.408Z,83.87
2022-12-14T19:13:05.993Z,83.69
2022-12-14T19:15:34.085Z,83.01
2022-12-14T19:18:00.608Z,83.56
2022-12-14T19:20:27.949Z,84.29
2022-12-14T19:22:54.495Z,84.22
2022-12-14T19:25:22.005Z,84.14
2022-12-14T19:30:36.270Z,83.18
2022-12-14T19:33:02.805Z,83.73
2022-12-14T19:35:29.320Z,83.32
2022-12-14T19:37:55.769Z,82.24
2022-12-14T19:40:22.342Z,82.96
2022-12-14T19:42:48.903Z,82.51
2022-12-14T19:45:15.571Z,82.07
2022-12-14T19:47:44.006Z,82.61
2022-12-14T19:50:11.324Z,83.44
2022-12-14T19:52:37.816Z,83.58
2022-12-14T19:55:04.448Z,83.75
2022-12-14T19:57:30.969Z,83.38
2022-12-14T19:59:59.832Z,83.56
2022-12-14T20:02:26.522Z,83.37
2022-12-14T20:04:53.074Z,84.18
2022-12-14T20:07:19.625Z,83.80
2022-12-14T20:09:46.111Z,85.36
2022-12-14T20:12:12.636Z,84.54
2022-12-14T20:14:40.033Z,84.86
2022-12-14T20:17:07.502Z,82.65
2022-12-14T20:19:34.937Z,83.84
2022-12-14T20:22:01.605Z,84.40
2022-12-14T20:24:28.139Z,83.53
2022-12-14T20:26:54.712Z,82.88
2022-12-14T20:29:21.355Z,82.48
2022-12-14T20:31:48.323Z,82.82
2022-12-14T20:34:14.885Z,83.25
2022-12-14T20:36:41.398Z,81.97
2022-12-14T20:39:07.919Z,82.87
2022-12-14T20:41:34.507Z,83.75
2022-12-14T20:44:02.257Z,83.34
2022-12-14T20:46:33.234Z,83.89
2022-12-14T20:49:03.518Z,83.02
2022-12-14T20:51:31.014Z,84.09
2022-12-14T20:53:57.582Z,83.49
2022-12-14T20:56:24.357Z,83.37
2022-12-14T20:58:51.055Z,82.95
2022-12-14T21:01:18.414Z,83.87
2022-12-14T21:03:47.008Z,83.71
2022-12-14T21:06:18.070Z,84.93
2022-12-14T21:09:05.661Z,84.76
2022-12-14T21:11:51.341Z,84.58
2022-12-14T21:14:18.521Z,84.12
2022-12-14T21:16:45.050Z,84.38
2022-12-14T21:19:13.200Z,81.35
2022-12-14T21:21:40.360Z,82.86
2022-12-14T21:24:10.897Z,83.09
2022-12-14T21:26:37.915Z,82.33
2022-12-14T21:29:05.668Z,83.41
2022-12-14T21:31:32.592Z,83.60
2022-12-14T21:33:59.124Z,83.06
2022-12-14T21:36:25.585Z,82.94
2022-12-14T21:38:53.732Z,83.89
2022-12-14T21:41:38.420Z,83.54
2022-12-14T21:44:05.272Z,83.54
2022-12-14T21:46:31.820Z,83.49
2022-12-14T21:48:59.135Z,82.51
2022-12-14T21:51:25.844Z,82.98
2022-12-14T21:53:59.320Z,83.78
2022-12-14T21:56:54.587Z,83.89
2022-12-14T21:59:25.443Z,83.78
2022-12-14T22:01:52.597Z,83.09
2022-12-14T22:04:19.709Z,82.79
2022-12-14T22:06:46.206Z,82.39
2022-12-14T22:09:12.986Z,83.76
2022-12-14T22:11:39.460Z,83.38
2022-12-14T22:14:05.928Z,84.41
2022-12-14T22:16:33.211Z,84.06
2022-12-14T22:19:00.404Z,84.27
2022-12-14T22:21:27.369Z,84.39
2022-12-14T22:23:54.476Z,83.80
2022-12-14T22:26:20.986Z,84.38
2022-12-14T22:28:53.644Z,84.80
2022-12-14T22:31:20.782Z,85.02
2022-12-14T22:33:49.559Z,84.73
2022-12-14T22:36:16.769Z,84.51
2022-12-14T22:38:43.595Z,84.53
2022-12-14T22:41:12.596Z,84.90
2022-12-14T22:43:39.443Z,84.36
2022-12-14T22:46:06.341Z,83.63
2022-12-14T22:48:33.555Z,83.91
2022-12-14T22:51:00.993Z,82.04
2022-12-14T22:53:28.740Z,83.07
2022-12-14T22:55:57.734Z,79.95
2022-12-14T22:58:24.756Z,80.58
2022-12-14T23:00:53.956Z,83.03
2022-12-14T23:03:23.030Z,83.58
2022-12-14T23:05:49.925Z,83.94
2022-12-14T23:08:16.516Z,83.99
2022-12-14T23:11:01.722Z,84.65
2022-12-14T23:13:46.873Z,84.83
2022-12-14T23:16:32.139Z,86.09
2022-12-14T23:19:17.369Z,85.42
2022-12-14T23:22:02.338Z,85.86
2022-12-14T23:24:47.613Z,86.48
2022-12-14T23:27:32.725Z,86.29
2022-12-14T23:30:18.115Z,86.71
2022-12-14T23:33:03.321Z,86.47
2022-12-14T23:35:48.577Z,86.54
2022-12-14T23:38:33.765Z,87.37
2022-12-14T23:41:19.796Z,86.80
2022-12-14T23:44:04.698Z,86.78
2022-12-14T23:46:50.032Z,87.35
2022-12-14T23:49:35.371Z,87.45
2022-12-14T23:52:20.336Z,87.79
2022-12-14T23:55:05.242Z,87.50
2022-12-14T23:57:50.314Z,87.06
